Accueil
METAR-TAF:

METAR-TAF

Aéroports :

Aéroport de Bari

Bari, Italie

latitude: 41-08N, longitude: 016-47E, altitude: 34 m

Observation

Le bulletin a été fait il y a 24 minutes, à 18:50 UTC
Vent 7 kt de ouest/nord-ouest, variant entre ouest et nord/nord-ouest
Température 9°C
Humidité 81%
Pression 1017 hPa
Visibilité 10 km ou plus
Nuages épars à une hauteur de 2500 ft

METAR: LIBD 311850Z 29007KT 260V340 9999 SCT025 09/06 Q1017

Heure: 21:14 (19:14 UTC)

Prévision

Le bulletin a été fait il y a 8 heures et 14 minutes, à 11:00 UTC
Prévision valable du 31 à 12 UTC au 01 à 12 UTC
Vent 14 kt de ouest/nord-ouest
Visibilité 10 km ou plus
Nuages épars à une hauteur de 3000 ft
Temporairement
du 31 à 15 UTC au 01 à 03 UTC
pluie

TAF: LIBD 311100Z 3112/0112 30014KT 9999 SCT030 TEMPO 3115/0103 RA

Observations et prévisions météorologiques de plus de 4000 aéroports (messages METAR et TAF).

Les stations disponibles sont représentées par des disques jaunes et rouges sur la carte.

Passer la souris dessus pour voir le nom de la station.

Cliquer dessus pour voir les observations et prévisions météorologiques.

Pour changer de carte: cliquez sur les boutons verts avec une croix noire pour zoomer, sur le bouton vert avec un tiret pour effectuer un zoom arrière, ou sur les flèches vertes pour les cartes adjacentes.


METAR-TAF: